Time,TemperatureF,DewpointF,PressureIn,WindDirection,WindDirectionDegrees,WindSpeedMPH,WindSpeedGustMPH,Humidity,HourlyPrecipIn,Conditions,Clouds,dailyrainin,SolarRadiationWatts/m^2,SoftwareType,DateUTC
2013-04-27 00:11:00,30.0,12.0,-100.00,NW,308,6.0,11.0,46,0.00,,,0.00,0.000000,,2013-04-27 08:11:00,
2013-04-27 00:21:00,30.0,12.0,-100.00,NW,308,6.0,11.0,46,0.00,,,0.00,0.000000,,2013-04-27 08:21:00,
2013-04-27 00:33:00,30.0,12.0,-100.00,NW,308,6.0,11.0,46,0.00,,,0.00,0.000000,,2013-04-27 08:33:00,
2013-04-27 00:41:00,30.0,12.0,-100.00,NW,308,6.0,11.0,46,0.00,,,0.00,0.000000,,2013-04-27 08:41:00,
2013-04-27 00:51:00,30.0,12.0,-100.00,NW,308,6.0,11.0,46,0.00,,,0.00,0.000000,,2013-04-27 08:51:00,
2013-04-27 01:11:00,29.0,11.0,-100.00,WNW,302,7.0,13.0,47,0.00,,,-99.99,0.000000,,2013-04-27 09:11:00,
2013-04-27 01:21:00,29.0,11.0,-100.00,WNW,302,7.0,13.0,47,0.00,,,-99.99,0.000000,,2013-04-27 09:21:00,
2013-04-27 01:33:00,29.0,11.0,-100.00,WNW,302,7.0,13.0,47,0.00,,,-99.99,0.000000,,2013-04-27 09:33:00,
2013-04-27 01:42:00,29.0,11.0,-100.00,WNW,302,7.0,13.0,47,0.00,,,-99.99,0.000000,,2013-04-27 09:42:00,
2013-04-27 01:53:00,29.0,11.0,-100.00,WNW,302,7.0,13.0,47,0.00,,,-99.99,0.000000,,2013-04-27 09:53:00,
2013-04-27 02:22:00,28.0,12.0,-100.00,NW,307,4.0,9.0,50,0.00,,,0.00,0.000000,,2013-04-27 10:22:00,
2013-04-27 02:32:00,28.0,12.0,-100.00,NW,307,4.0,9.0,50,0.00,,,0.00,0.000000,,2013-04-27 10:32:00,
2013-04-27 02:42:00,28.0,12.0,-100.00,NW,307,4.0,9.0,50,0.00,,,0.00,0.000000,,2013-04-27 10:42:00,
2013-04-27 02:52:00,28.0,12.0,-100.00,NW,307,4.0,9.0,50,0.00,,,0.00,0.000000,,2013-04-27 10:52:00,
2013-04-27 03:11:00,28.0,14.0,-100.00,North,5,4.0,14.0,56,0.00,,,0.00,0.000000,,2013-04-27 11:11:00,
2013-04-27 03:22:00,28.0,14.0,-100.00,North,5,4.0,14.0,56,0.00,,,0.00,0.000000,,2013-04-27 11:22:00,
2013-04-27 03:31:00,28.0,14.0,-100.00,North,5,4.0,14.0,56,0.00,,,0.00,0.000000,,2013-04-27 11:31:00,
2013-04-27 03:41:00,28.0,14.0,-100.00,North,5,4.0,14.0,56,0.00,,,0.00,0.000000,,2013-04-27 11:41:00,
2013-04-27 03:52:00,28.0,14.0,-100.00,North,5,4.0,14.0,56,0.00,,,0.00,0.000000,,2013-04-27 11:52:00,
2013-04-27 04:21:00,28.0,16.0,-100.00,NW,318,6.0,9.0,59,0.00,,,0.00,0.000000,,2013-04-27 12:21:00,
2013-04-27 04:32:00,28.0,16.0,-100.00,NW,318,6.0,9.0,59,0.00,,,0.00,0.000000,,2013-04-27 12:32:00,
2013-04-27 04:42:00,28.0,16.0,-100.00,NW,318,6.0,9.0,59,0.00,,,0.00,0.000000,,2013-04-27 12:42:00,
2013-04-27 04:51:00,28.0,16.0,-100.00,NW,318,6.0,9.0,59,0.00,,,0.00,0.000000,,2013-04-27 12:51:00,
2013-04-27 05:21:00,28.0,14.0,-100.00,North,359,3.0,11.0,56,0.00,,,0.00,0.000000,,2013-04-27 13:21:00,
2013-04-27 05:32:00,28.0,14.0,-100.00,North,359,3.0,11.0,56,0.00,,,0.00,0.000000,,2013-04-27 13:32:00,
2013-04-27 05:41:00,28.0,14.0,-100.00,North,359,3.0,11.0,56,0.00,,,0.00,0.000000,,2013-04-27 13:41:00,
2013-04-27 05:52:00,28.0,14.0,-100.00,North,359,3.0,11.0,56,0.00,,,0.00,0.000000,,2013-04-27 13:52:00,
2013-04-27 06:11:00,28.0,14.0,-100.00,NW,326,6.0,11.0,56,0.00,,,0.00,0.000000,,2013-04-27 14:11:00,
2013-04-27 06:21:00,28.0,14.0,-100.00,NW,326,6.0,11.0,56,0.00,,,0.00,0.000000,,2013-04-27 14:21:00,
2013-04-27 06:31:00,28.0,14.0,-100.00,NW,326,6.0,11.0,56,0.00,,,0.00,0.000000,,2013-04-27 14:31:00,
2013-04-27 06:41:00,28.0,14.0,-100.00,NW,326,6.0,11.0,56,0.00,,,0.00,0.000000,,2013-04-27 14:41:00,
2013-04-27 06:52:00,28.0,14.0,-100.00,NW,326,6.0,11.0,56,0.00,,,0.00,0.000000,,2013-04-27 14:52:00,
2013-04-27 07:11:00,29.0,16.0,-100.00,NNW,328,7.0,12.0,57,0.00,,,0.00,6.000000,,2013-04-27 15:11:00,
2013-04-27 07:21:00,29.0,16.0,-100.00,NNW,328,7.0,12.0,57,0.00,,,0.00,6.000000,,2013-04-27 15:21:00,
2013-04-27 07:33:00,29.0,16.0,-100.00,NNW,328,7.0,12.0,57,0.00,,,0.00,6.000000,,2013-04-27 15:33:00,
2013-04-27 07:42:00,29.0,16.0,-100.00,NNW,328,7.0,12.0,57,0.00,,,0.00,6.000000,,2013-04-27 15:42:00,
2013-04-27 07:52:00,29.0,16.0,-100.00,NNW,328,7.0,12.0,57,0.00,,,0.00,6.000000,,2013-04-27 15:52:00,
2013-04-27 08:13:00,29.0,16.0,-100.00,NW,324,6.0,11.0,58,0.00,,,0.00,39.000000,,2013-04-27 16:13:00,
2013-04-27 08:22:00,29.0,16.0,-100.00,NW,324,6.0,11.0,58,0.00,,,0.00,39.000000,,2013-04-27 16:22:00,
2013-04-27 08:32:00,29.0,16.0,-100.00,NW,324,6.0,11.0,58,0.00,,,0.00,39.000000,,2013-04-27 16:32:00,
2013-04-27 08:42:00,29.0,16.0,-100.00,NW,324,6.0,11.0,58,0.00,,,0.00,39.000000,,2013-04-27 16:42:00,
2013-04-27 08:52:00,29.0,16.0,-100.00,NW,324,6.0,11.0,58,0.00,,,0.00,39.000000,,2013-04-27 16:52:00,
2013-04-27 09:22:00,31.0,16.0,-100.00,North,6,7.0,15.0,53,0.00,,,0.00,177.000000,,2013-04-27 17:22:00,
2013-04-27 09:31:00,31.0,16.0,-100.00,North,6,7.0,15.0,53,0.00,,,0.00,177.000000,,2013-04-27 17:31:00,
2013-04-27 09:42:00,31.0,16.0,-100.00,North,6,7.0,15.0,53,0.00,,,0.00,177.000000,,2013-04-27 17:42:00,
2013-04-27 09:52:00,31.0,16.0,-100.00,North,6,7.0,15.0,53,0.00,,,0.00,177.000000,,2013-04-27 17:52:00,
2013-04-27 10:11:00,34.0,13.0,-100.00,North,7,12.0,19.0,42,0.00,,,0.00,418.000000,,2013-04-27 18:11:00,
2013-04-27 10:22:00,34.0,13.0,-100.00,North,7,12.0,19.0,42,0.00,,,0.00,418.000000,,2013-04-27 18:22:00,
2013-04-27 10:32:00,34.0,13.0,-100.00,North,7,12.0,19.0,42,0.00,,,0.00,418.000000,,2013-04-27 18:32:00,
2013-04-27 10:41:00,34.0,13.0,-100.00,North,7,12.0,19.0,42,0.00,,,0.00,418.000000,,2013-04-27 18:41:00,
2013-04-27 10:51:00,34.0,13.0,-100.00,North,7,12.0,19.0,42,0.00,,,0.00,418.000000,,2013-04-27 18:51:00,
2013-04-27 11:11:00,35.0,14.0,-100.00,North,11,10.0,19.0,41,0.00,,,0.00,547.000000,,2013-04-27 19:11:00,
2013-04-27 11:21:00,35.0,14.0,-100.00,North,11,10.0,19.0,41,0.00,,,0.00,547.000000,,2013-04-27 19:21:00,
2013-04-27 11:32:00,35.0,14.0,-100.00,North,11,10.0,19.0,41,0.00,,,0.00,547.000000,,2013-04-27 19:32:00,
2013-04-27 11:42:00,35.0,14.0,-100.00,North,11,10.0,19.0,41,0.00,,,0.00,547.000000,,2013-04-27 19:42:00,
2013-04-27 11:52:00,35.0,14.0,-100.00,North,11,10.0,19.0,41,0.00,,,0.00,547.000000,,2013-04-27 19:52:00,
2013-04-27 12:11:00,38.0,17.0,-100.00,North,356,8.0,17.0,42,0.00,,,0.00,611.000000,,2013-04-27 20:11:00,
2013-04-27 12:21:00,38.0,17.0,-100.00,North,356,8.0,17.0,42,0.00,,,0.00,611.000000,,2013-04-27 20:21:00,
2013-04-27 12:32:00,38.0,17.0,-100.00,North,356,8.0,17.0,42,0.00,,,0.00,611.000000,,2013-04-27 20:32:00,
2013-04-27 12:41:00,38.0,17.0,-100.00,North,356,8.0,17.0,42,0.00,,,0.00,611.000000,,2013-04-27 20:41:00,
2013-04-27 12:52:00,38.0,17.0,-100.00,North,356,8.0,17.0,42,0.00,,,0.00,611.000000,,2013-04-27 20:52:00,
2013-04-27 13:11:00,39.0,15.0,-100.00,North,355,8.0,19.0,37,0.00,,,0.00,774.000000,,2013-04-27 21:11:00,
2013-04-27 13:21:00,39.0,15.0,-100.00,North,355,8.0,19.0,37,0.00,,,0.00,774.000000,,2013-04-27 21:21:00,
2013-04-27 13:32:00,39.0,15.0,-100.00,North,355,8.0,19.0,37,0.00,,,0.00,774.000000,,2013-04-27 21:32:00,
2013-04-27 13:42:00,39.0,15.0,-100.00,North,355,8.0,19.0,37,0.00,,,0.00,774.000000,,2013-04-27 21:42:00,
2013-04-27 13:53:00,39.0,15.0,-100.00,North,355,8.0,19.0,37,0.00,,,0.00,774.000000,,2013-04-27 21:53:00,
2013-04-27 14:12:00,39.0,14.0,-100.00,NNW,348,10.0,19.0,35,0.00,,,0.00,830.000000,,2013-04-27 22:12:00,
2013-04-27 14:22:00,39.0,14.0,-100.00,NNW,348,10.0,19.0,35,0.00,,,0.00,830.000000,,2013-04-27 22:22:00,
2013-04-27 14:32:00,39.0,14.0,-100.00,NNW,348,10.0,19.0,35,0.00,,,0.00,830.000000,,2013-04-27 22:32:00,
2013-04-27 14:42:00,39.0,14.0,-100.00,NNW,348,10.0,19.0,35,0.00,,,0.00,830.000000,,2013-04-27 22:42:00,
2013-04-27 14:52:00,39.0,14.0,-100.00,NNW,348,10.0,19.0,35,0.00,,,0.00,830.000000,,2013-04-27 22:52:00,
2013-04-27 15:22:00,40.0,14.0,-100.00,North,349,11.0,22.0,34,0.00,,,0.00,827.000000,,2013-04-27 23:22:00,
2013-04-27 15:32:00,40.0,14.0,-100.00,North,349,11.0,22.0,34,0.00,,,0.00,827.000000,,2013-04-27 23:32:00,
2013-04-27 15:42:00,40.0,14.0,-100.00,North,349,11.0,22.0,34,0.00,,,0.00,827.000000,,2013-04-27 23:42:00,
2013-04-27 15:52:00,40.0,14.0,-100.00,North,349,11.0,22.0,34,0.00,,,0.00,827.000000,,2013-04-27 23:52:00,
2013-04-27 16:11:00,40.0,13.0,-100.00,North,350,10.0,19.0,33,0.00,,,0.00,787.000000,,2013-04-28 00:11:00,
2013-04-27 16:21:00,40.0,13.0,-100.00,North,350,10.0,19.0,33,0.00,,,0.00,787.000000,,2013-04-28 00:21:00,
2013-04-27 16:31:00,40.0,13.0,-100.00,North,350,10.0,19.0,33,0.00,,,0.00,787.000000,,2013-04-28 00:31:00,
2013-04-27 16:42:00,40.0,13.0,-100.00,North,350,10.0,19.0,33,0.00,,,0.00,787.000000,,2013-04-28 00:42:00,
2013-04-27 16:51:00,40.0,13.0,-100.00,North,350,10.0,19.0,33,0.00,,,0.00,787.000000,,2013-04-28 00:51:00,
2013-04-27 17:11:00,40.0,13.0,-100.00,North,350,10.0,21.0,32,0.00,,,0.00,699.000000,,2013-04-28 01:11:00,
2013-04-27 17:21:00,40.0,13.0,-100.00,North,350,10.0,21.0,32,0.00,,,0.00,699.000000,,2013-04-28 01:21:00,
2013-04-27 17:31:00,40.0,13.0,-100.00,North,350,10.0,21.0,32,0.00,,,0.00,699.000000,,2013-04-28 01:31:00,
2013-04-27 17:41:00,40.0,13.0,-100.00,North,350,10.0,21.0,32,0.00,,,0.00,699.000000,,2013-04-28 01:41:00,
2013-04-27 17:52:00,40.0,13.0,-100.00,North,350,10.0,21.0,32,0.00,,,0.00,699.000000,,2013-04-28 01:52:00,
2013-04-27 18:12:00,40.0,13.0,-100.00,NNW,337,10.0,21.0,32,0.00,,,0.00,576.000000,,2013-04-28 02:12:00,
2013-04-27 18:21:00,40.0,13.0,-100.00,NNW,337,10.0,21.0,32,0.00,,,0.00,576.000000,,2013-04-28 02:21:00,
2013-04-27 18:32:00,40.0,13.0,-100.00,NNW,337,10.0,21.0,32,0.00,,,0.00,576.000000,,2013-04-28 02:32:00,
2013-04-27 18:41:00,40.0,13.0,-100.00,NNW,337,10.0,21.0,32,0.00,,,0.00,576.000000,,2013-04-28 02:41:00,
2013-04-27 18:52:00,40.0,13.0,-100.00,NNW,337,10.0,21.0,32,0.00,,,0.00,576.000000,,2013-04-28 02:52:00,
2013-04-27 19:21:00,39.0,15.0,-100.00,NNW,338,7.0,20.0,37,0.00,,,0.00,357.000000,,2013-04-28 03:21:00,
2013-04-27 19:32:00,39.0,15.0,-100.00,NNW,338,7.0,20.0,37,0.00,,,0.00,357.000000,,2013-04-28 03:32:00,
2013-04-27 19:42:00,39.0,15.0,-100.00,NNW,338,7.0,20.0,37,0.00,,,0.00,357.000000,,2013-04-28 03:42:00,
2013-04-27 19:53:00,39.0,15.0,-100.00,NNW,338,7.0,20.0,37,0.00,,,0.00,357.000000,,2013-04-28 03:53:00,
2013-04-27 20:13:00,38.0,11.0,-100.00,North,352,7.0,14.0,33,0.00,,,0.00,128.000000,,2013-04-28 04:13:00,
2013-04-27 20:22:00,38.0,11.0,-100.00,North,352,7.0,14.0,33,0.00,,,0.00,128.000000,,2013-04-28 04:22:00,
2013-04-27 20:32:00,38.0,11.0,-100.00,North,352,7.0,14.0,33,0.00,,,0.00,128.000000,,2013-04-28 04:32:00,
2013-04-27 20:42:00,38.0,11.0,-100.00,North,352,7.0,14.0,33,0.00,,,0.00,128.000000,,2013-04-28 04:42:00,
2013-04-27 20:52:00,38.0,11.0,-100.00,North,352,7.0,14.0,33,0.00,,,0.00,128.000000,,2013-04-28 04:52:00,
2013-04-27 21:12:00,35.0,12.0,-100.00,NNW,339,3.0,11.0,38,0.00,,,0.00,78.000000,,2013-04-28 05:12:00,
2013-04-27 21:22:00,35.0,12.0,-100.00,NNW,339,3.0,11.0,38,0.00,,,0.00,78.000000,,2013-04-28 05:22:00,
2013-04-27 21:32:00,35.0,12.0,-100.00,NNW,339,3.0,11.0,38,0.00,,,0.00,78.000000,,2013-04-28 05:32:00,
2013-04-27 21:42:00,35.0,12.0,-100.00,NNW,339,3.0,11.0,38,0.00,,,0.00,78.000000,,2013-04-28 05:42:00,
2013-04-27 21:51:00,35.0,12.0,-100.00,NNW,339,3.0,11.0,38,0.00,,,0.00,78.000000,,2013-04-28 05:51:00,
2013-04-27 22:21:00,31.0,13.0,-100.00,NNW,328,4.0,9.0,47,0.00,,,-99.99,12.000000,,2013-04-28 06:21:00,
2013-04-27 22:32:00,31.0,13.0,-100.00,NNW,328,4.0,9.0,47,0.00,,,-99.99,12.000000,,2013-04-28 06:32:00,
2013-04-27 22:42:00,31.0,13.0,-100.00,NNW,328,4.0,9.0,47,0.00,,,-99.99,12.000000,,2013-04-28 06:42:00,
2013-04-27 22:51:00,31.0,13.0,-100.00,NNW,328,4.0,9.0,47,0.00,,,-99.99,12.000000,,2013-04-28 06:51:00,
2013-04-27 23:21:00,31.0,17.0,-100.00,NNW,333,4.0,8.0,55,0.00,,,0.00,1.000000,,2013-04-28 07:21:00,
2013-04-27 23:31:00,31.0,17.0,-100.00,NNW,333,4.0,8.0,55,0.00,,,0.00,1.000000,,2013-04-28 07:31:00,
2013-04-27 23:42:00,31.0,17.0,-100.00,NNW,333,4.0,8.0,55,0.00,,,0.00,1.000000,,2013-04-28 07:42:00,
2013-04-27 23:52:00,31.0,17.0,-100.00,NNW,333,4.0,8.0,55,0.00,,,0.00,1.000000,,2013-04-28 07:52:00,